createdAt,value
2022-08-17T00:01:31.396Z,21.58
2022-08-17T00:04:19.102Z,21.58
2022-08-17T00:06:45.827Z,21.65
2022-08-17T00:09:18.438Z,21.60
2022-08-17T00:12:43.683Z,21.56
2022-08-17T00:14:36.225Z,21.57
2022-08-17T00:17:06.475Z,21.55
2022-08-17T00:19:33.177Z,21.62
2022-08-17T00:22:32.942Z,21.41
2022-08-17T00:24:49.949Z,21.55
2022-08-17T00:27:17.266Z,21.57
2022-08-17T00:29:45.703Z,21.55
2022-08-17T00:33:22.742Z,21.40
2022-08-17T00:35:00.203Z,21.52
2022-08-17T00:37:26.827Z,21.49
2022-08-17T00:39:53.450Z,21.51
2022-08-17T00:42:20.108Z,21.57
2022-08-17T00:44:46.962Z,21.32
2022-08-17T00:47:13.519Z,21.55
2022-08-17T00:49:40.166Z,21.50
2022-08-17T00:52:16.770Z,21.41
2022-08-17T00:54:46.971Z,21.61
2022-08-17T00:57:41.674Z,21.48
2022-08-17T01:00:15.453Z,21.57
2022-08-17T01:02:46.090Z,21.59
2022-08-17T01:05:17.210Z,21.51
2022-08-17T01:07:47.876Z,21.35
2022-08-17T01:11:00.679Z,21.47
2022-08-17T01:13:04.276Z,21.52
2022-08-17T01:15:35.046Z,21.41
2022-08-17T01:18:02.443Z,21.41
2022-08-17T01:20:29.597Z,21.32
2022-08-17T01:22:56.195Z,21.51
2022-08-17T01:25:22.941Z,21.63
2022-08-17T01:27:49.985Z,21.65
2022-08-17T01:30:56.662Z,21.59
2022-08-17T01:33:04.422Z,21.68
2022-08-17T01:35:31.319Z,21.86
2022-08-17T01:37:58.049Z,21.81
2022-08-17T01:40:34.508Z,21.62
2022-08-17T01:43:11.323Z,21.67
2022-08-17T01:45:44.207Z,21.49
2022-08-17T01:48:12.096Z,21.43
2022-08-17T01:50:40.644Z,21.19
2022-08-17T01:53:16.123Z,20.82
2022-08-17T01:56:07.141Z,20.67
2022-08-17T01:58:35.311Z,20.67
2022-08-17T02:01:03.781Z,20.64
2022-08-17T02:03:31.020Z,20.66
2022-08-17T02:05:57.763Z,20.47
2022-08-17T02:08:37.033Z,20.35
2022-08-17T02:11:11.495Z,20.02
2022-08-17T02:13:38.945Z,19.89
2022-08-17T02:16:05.658Z,19.98
2022-08-17T02:18:32.417Z,20.09
2022-08-17T02:20:59.981Z,20.22
2022-08-17T02:23:30.528Z,20.27
2022-08-17T02:25:59.813Z,20.05
2022-08-17T02:28:26.585Z,19.89
2022-08-17T02:31:01.562Z,19.72
2022-08-17T02:33:42.502Z,19.93
2022-08-17T02:36:12.207Z,19.74
2022-08-17T02:38:40.644Z,19.64
2022-08-17T02:41:07.572Z,19.70
2022-08-17T02:43:34.180Z,19.70
2022-08-17T02:46:00.853Z,19.76
2022-08-17T02:48:31.015Z,19.68
2022-08-17T02:50:58.125Z,19.70
2022-08-17T02:53:24.758Z,19.72
2022-08-17T02:55:52.749Z,19.86
2022-08-17T02:58:29.572Z,19.77
2022-08-17T03:01:03.372Z,19.80
2022-08-17T03:03:30.196Z,19.65
2022-08-17T03:05:56.714Z,19.73
2022-08-17T03:08:23.462Z,19.71
2022-08-17T03:10:50.532Z,19.61
2022-08-17T03:13:17.966Z,19.62
2022-08-17T03:15:46.842Z,19.49
2022-08-17T03:18:19.213Z,19.65
2022-08-17T03:20:55.658Z,19.55
2022-08-17T03:23:24.179Z,19.52
2022-08-17T03:25:53.827Z,19.55
2022-08-17T03:28:21.785Z,19.62
2022-08-17T03:30:48.819Z,19.62
2022-08-17T03:33:16.256Z,19.33
2022-08-17T03:35:43.388Z,19.53
2022-08-17T03:38:11.807Z,19.47
2022-08-17T03:40:56.909Z,19.51
2022-08-17T03:43:25.083Z,19.53
2022-08-17T03:46:29.040Z,19.50
2022-08-17T03:49:32.444Z,19.52
2022-08-17T03:52:17.797Z,19.61
2022-08-17T03:55:04.091Z,19.60
2022-08-17T03:57:31.109Z,19.54
2022-08-17T03:59:58.133Z,19.44
2022-08-17T04:02:29.177Z,19.33
2022-08-17T04:04:56.270Z,19.51
2022-08-17T04:07:25.967Z,19.44
2022-08-17T04:09:52.529Z,19.43
2022-08-17T04:12:21.593Z,19.48
2022-08-17T04:14:52.855Z,19.33
2022-08-17T04:17:27.105Z,19.50
2022-08-17T04:19:55.201Z,19.29
2022-08-17T04:22:31.074Z,19.12
2022-08-17T04:25:15.044Z,19.12
2022-08-17T04:27:41.612Z,19.21
2022-08-17T04:30:08.888Z,19.10
2022-08-17T04:33:04.632Z,19.00
2022-08-17T04:35:41.239Z,19.02
2022-08-17T04:38:10.215Z,19.00
2022-08-17T04:40:55.917Z,19.04
2022-08-17T04:43:25.192Z,18.96
2022-08-17T04:46:00.916Z,19.00
2022-08-17T04:48:36.487Z,19.05
2022-08-17T04:51:13.549Z,18.99
2022-08-17T04:53:42.692Z,19.09
2022-08-17T04:56:16.253Z,19.10
2022-08-17T04:58:45.864Z,19.11
2022-08-17T05:01:12.741Z,19.04
2022-08-17T05:03:39.408Z,19.14
2022-08-17T05:06:06.202Z,19.09
2022-08-17T05:08:32.957Z,18.99
2022-08-17T05:11:00.386Z,19.02
2022-08-17T05:13:29.700Z,19.12
2022-08-17T05:16:02.014Z,19.05
2022-08-17T05:18:29.470Z,19.18
2022-08-17T05:20:57.591Z,19.00
2022-08-17T05:23:27.125Z,19.21
2022-08-17T05:26:03.801Z,19.23
2022-08-17T05:28:33.853Z,19.39
2022-08-17T05:31:03.422Z,19.47
2022-08-17T05:33:36.483Z,19.47
2022-08-17T05:36:05.434Z,19.37
2022-08-17T05:38:32.861Z,19.31
2022-08-17T05:41:01.954Z,19.20
2022-08-17T05:43:32.859Z,19.36
2022-08-17T05:46:17.918Z,19.38
2022-08-17T05:48:50.929Z,19.48
2022-08-17T05:51:35.486Z,19.57
2022-08-17T05:54:26.667Z,19.65
2022-08-17T05:57:39.949Z,19.58
2022-08-17T06:00:30.267Z,19.52
2022-08-17T06:03:25.988Z,19.58
2022-08-17T06:06:31.218Z,19.75
2022-08-17T06:09:34.053Z,19.71
2022-08-17T06:12:27.358Z,19.83
2022-08-17T06:15:03.793Z,19.83
2022-08-17T06:17:31.311Z,19.92
2022-08-17T06:20:03.294Z,19.91
2022-08-17T06:22:36.085Z,20.17
2022-08-17T06:25:10.007Z,20.29
2022-08-17T06:27:47.011Z,20.38
2022-08-17T06:30:26.765Z,20.62
2022-08-17T06:32:59.574Z,20.62
2022-08-17T06:35:44.464Z,20.53
2022-08-17T06:38:21.862Z,20.99
2022-08-17T06:41:13.103Z,20.65
2022-08-17T06:44:10.289Z,20.73
2022-08-17T06:46:41.071Z,20.68
2022-08-17T06:49:22.000Z,20.77
2022-08-17T06:52:42.293Z,20.46
2022-08-17T06:55:07.693Z,20.51
2022-08-17T06:57:52.591Z,20.50
2022-08-17T07:00:28.116Z,20.54
2022-08-17T07:03:20.873Z,20.23
2022-08-17T07:06:08.409Z,20.18
2022-08-17T07:08:38.154Z,20.13
2022-08-17T07:11:43.822Z,20.33
2022-08-17T07:14:23.708Z,20.00
2022-08-17T07:16:56.487Z,20.26
2022-08-17T07:19:31.596Z,20.12
2022-08-17T07:22:57.630Z,20.23
2022-08-17T07:25:25.506Z,20.34
2022-08-17T07:27:55.945Z,20.19
2022-08-17T07:30:29.754Z,20.11
2022-08-17T07:33:13.705Z,19.94
2022-08-17T07:35:44.603Z,19.98
2022-08-17T07:38:25.506Z,20.21
2022-08-17T07:41:05.396Z,20.08
2022-08-17T07:43:41.207Z,20.24
2022-08-17T07:46:47.980Z,20.31
2022-08-17T07:49:14.488Z,20.27
2022-08-17T07:51:43.919Z,20.31
2022-08-17T07:54:18.747Z,20.28
2022-08-17T07:56:57.145Z,20.19
2022-08-17T07:59:37.703Z,20.07
2022-08-17T08:02:33.881Z,20.45
2022-08-17T08:05:02.971Z,20.37
2022-08-17T08:07:40.204Z,20.27
2022-08-17T08:10:28.300Z,20.29
2022-08-17T08:13:14.475Z,20.04
2022-08-17T08:15:54.123Z,20.18
2022-08-17T08:18:54.005Z,20.24
2022-08-17T08:21:24.375Z,20.54
2022-08-17T08:24:15.679Z,20.47
2022-08-17T08:27:27.164Z,20.23
2022-08-17T08:30:14.412Z,20.23
2022-08-17T08:32:46.093Z,20.27
2022-08-17T08:35:33.048Z,20.49
2022-08-17T08:38:14.829Z,20.58
2022-08-17T08:41:22.320Z,20.35
2022-08-17T08:44:13.771Z,20.51
2022-08-17T08:47:27.691Z,20.20
2022-08-17T08:50:31.797Z,20.62
2022-08-17T08:53:42.384Z,20.40
2022-08-17T08:56:38.374Z,20.28
2022-08-17T08:59:22.656Z,19.99
2022-08-17T09:02:09.668Z,20.18
2022-08-17T09:05:10.323Z,20.19
2022-08-17T09:07:54.737Z,20.45
2022-08-17T09:10:40.603Z,20.75
2022-08-17T09:13:22.670Z,20.97
2022-08-17T09:15:59.188Z,20.87
2022-08-17T09:19:01.609Z,20.82
2022-08-17T09:21:38.103Z,20.53
2022-08-17T09:24:40.122Z,20.84
2022-08-17T09:27:21.992Z,20.67
2022-08-17T09:30:00.379Z,20.61
2022-08-17T09:32:43.979Z,20.89
2022-08-17T09:35:19.418Z,21.04
2022-08-17T09:38:17.361Z,20.71
2022-08-17T09:40:59.656Z,20.78
2022-08-17T09:43:26.124Z,20.77
2022-08-17T09:45:58.568Z,20.72
2022-08-17T09:48:48.289Z,20.70
2022-08-17T09:51:18.006Z,20.74
2022-08-17T09:53:44.941Z,20.80
2022-08-17T09:56:24.018Z,20.55
2022-08-17T09:59:38.893Z,20.44
2022-08-17T10:02:42.027Z,20.70
2022-08-17T10:05:21.993Z,20.54
2022-08-17T10:07:59.328Z,20.65
2022-08-17T10:10:33.487Z,20.61
2022-08-17T10:13:10.925Z,20.43
2022-08-17T10:16:19.401Z,20.47
2022-08-17T10:19:08.094Z,20.33
2022-08-17T10:22:00.780Z,20.13
2022-08-17T10:25:02.041Z,20.20
2022-08-17T10:27:48.890Z,20.17
2022-08-17T10:30:18.855Z,20.07
2022-08-17T10:32:50.301Z,19.91
2022-08-17T10:35:34.144Z,19.99
2022-08-17T10:38:46.030Z,19.89
2022-08-17T10:41:38.216Z,19.62
2022-08-17T10:44:39.851Z,19.62
2022-08-17T10:47:15.085Z,19.43
2022-08-17T10:49:47.759Z,19.45
2022-08-17T10:52:20.651Z,19.42
2022-08-17T10:54:51.811Z,19.36
2022-08-17T10:57:33.827Z,19.32
2022-08-17T11:00:38.076Z,19.46
2022-08-17T11:03:19.677Z,19.39
2022-08-17T11:06:06.827Z,19.46
2022-08-17T11:09:19.847Z,19.43
2022-08-17T11:12:07.583Z,19.44
2022-08-17T11:14:58.463Z,19.51
2022-08-17T11:18:07.183Z,19.42
2022-08-17T11:21:15.976Z,19.31
2022-08-17T11:23:54.354Z,19.31
2022-08-17T11:26:25.907Z,19.06
2022-08-17T11:28:59.604Z,19.05
2022-08-17T11:31:38.487Z,19.21
2022-08-17T11:34:23.207Z,19.23
2022-08-17T11:36:52.387Z,19.19
2022-08-17T11:39:36.301Z,19.17
2022-08-17T11:42:16.276Z,19.38
2022-08-17T11:45:31.860Z,19.30
2022-08-17T11:48:35.285Z,19.11
2022-08-17T11:51:35.899Z,19.14
2022-08-17T11:54:34.778Z,19.38
2022-08-17T11:57:27.406Z,19.46
2022-08-17T12:00:11.095Z,19.30
2022-08-17T12:02:48.292Z,19.37
2022-08-17T12:05:17.068Z,19.38
2022-08-17T12:07:49.291Z,19.38
2022-08-17T12:10:24.027Z,19.33
2022-08-17T12:12:54.066Z,19.49
2022-08-17T12:15:29.867Z,19.25
2022-08-17T12:17:57.466Z,19.42
2022-08-17T12:20:33.522Z,19.47
2022-08-17T12:23:32.637Z,19.40
2022-08-17T12:26:14.768Z,19.64
2022-08-17T12:28:50.294Z,19.56
2022-08-17T12:31:24.681Z,19.39
2022-08-17T12:33:51.903Z,19.52
2022-08-17T12:36:26.485Z,19.73
2022-08-17T12:39:14.170Z,19.37
2022-08-17T12:41:53.185Z,19.58
2022-08-17T12:44:22.229Z,19.42
2022-08-17T12:46:51.557Z,19.51
2022-08-17T12:49:32.370Z,19.11
2022-08-17T12:52:19.939Z,19.03
2022-08-17T12:55:01.849Z,18.96
2022-08-17T12:57:48.822Z,18.62
2022-08-17T13:00:32.267Z,18.62
2022-08-17T13:03:07.704Z,18.54
2022-08-17T13:05:35.666Z,18.63
2022-08-17T13:08:14.269Z,18.63
2022-08-17T13:10:40.823Z,18.66
2022-08-17T13:13:29.779Z,18.54
2022-08-17T13:15:59.706Z,18.74
2022-08-17T13:18:41.514Z,18.59
2022-08-17T13:21:19.380Z,18.73
2022-08-17T13:24:03.720Z,18.45
2022-08-17T13:26:37.075Z,18.60
2022-08-17T13:29:24.108Z,18.65
2022-08-17T13:31:56.607Z,18.58
2022-08-17T13:35:07.747Z,18.63
2022-08-17T13:37:34.570Z,18.80
2022-08-17T13:40:10.078Z,18.80
2022-08-17T13:42:51.880Z,18.94
2022-08-17T13:45:35.665Z,19.04
2022-08-17T13:48:13.635Z,18.76
2022-08-17T13:50:56.155Z,18.75
2022-08-17T13:53:25.803Z,19.09
2022-08-17T13:55:59.375Z,18.99
2022-08-17T13:58:27.744Z,18.75
2022-08-17T14:00:56.245Z,18.86
2022-08-17T14:03:24.351Z,19.07
2022-08-17T14:05:52.391Z,18.99
2022-08-17T14:08:20.888Z,18.97
2022-08-17T14:10:57.871Z,19.13
2022-08-17T14:13:24.452Z,19.21
2022-08-17T14:15:55.963Z,19.08
2022-08-17T14:18:55.715Z,19.04
2022-08-17T14:21:10.093Z,19.15
2022-08-17T14:23:37.707Z,19.19
2022-08-17T14:26:04.994Z,19.23
2022-08-17T14:28:32.163Z,19.08
2022-08-17T14:31:00.783Z,19.13
2022-08-17T14:33:28.959Z,19.23
2022-08-17T14:35:57.467Z,19.20
2022-08-17T14:38:24.297Z,19.27
2022-08-17T14:40:50.958Z,19.41
2022-08-17T14:43:18.885Z,19.13
2022-08-17T14:45:45.440Z,19.01
2022-08-17T14:48:12.059Z,18.98
2022-08-17T14:50:41.588Z,18.92
2022-08-17T14:53:10.786Z,18.98
2022-08-17T14:55:39.929Z,19.15
2022-08-17T14:58:07.586Z,19.16
2022-08-17T15:00:35.445Z,18.97
2022-08-17T15:03:02.522Z,19.08
2022-08-17T15:05:33.643Z,19.10
2022-08-17T15:08:01.883Z,18.93
2022-08-17T15:10:29.879Z,18.89
2022-08-17T15:12:57.027Z,19.05
2022-08-17T15:15:23.859Z,18.92
2022-08-17T15:17:51.366Z,18.81
2022-08-17T15:20:21.375Z,18.82
2022-08-17T15:22:55.662Z,18.72
2022-08-17T15:25:24.892Z,18.74
2022-08-17T15:27:52.217Z,18.83
2022-08-17T15:30:19.567Z,18.89
2022-08-17T15:32:54.714Z,18.77
2022-08-17T15:35:28.060Z,19.11
2022-08-17T15:38:04.682Z,18.79
2022-08-17T15:40:36.584Z,18.86
2022-08-17T15:43:08.060Z,18.67
2022-08-17T15:45:35.314Z,19.04
2022-08-17T15:48:02.410Z,18.86
2022-08-17T15:50:28.994Z,18.91
2022-08-17T15:53:00.138Z,18.64
2022-08-17T15:55:29.113Z,18.73
2022-08-17T15:57:55.864Z,18.73
2022-08-17T16:00:26.064Z,18.96
2022-08-17T16:03:44.959Z,19.10
2022-08-17T16:05:41.073Z,18.98
2022-08-17T16:08:08.284Z,19.28
2022-08-17T16:10:36.067Z,19.46
2022-08-17T16:13:04.209Z,19.33
2022-08-17T16:15:33.735Z,19.14
2022-08-17T16:18:00.282Z,19.36
2022-08-17T16:20:27.459Z,19.14
2022-08-17T16:22:55.001Z,19.19
2022-08-17T16:25:38.849Z,19.20
2022-08-17T16:28:15.742Z,19.05
2022-08-17T16:30:43.254Z,19.08
2022-08-17T16:33:11.617Z,19.32
2022-08-17T16:35:38.709Z,19.44
2022-08-17T16:38:07.262Z,19.24
2022-08-17T16:40:36.153Z,19.34
2022-08-17T16:43:04.361Z,19.24
2022-08-17T16:45:36.796Z,19.26
2022-08-17T16:48:04.486Z,19.23
2022-08-17T16:50:32.168Z,19.26
2022-08-17T16:53:13.691Z,19.14
2022-08-17T16:55:40.286Z,19.06
2022-08-17T16:58:08.769Z,19.14
2022-08-17T17:00:36.697Z,19.08
2022-08-17T17:03:20.514Z,19.00
2022-08-17T17:06:28.837Z,18.92
2022-08-17T17:09:07.847Z,18.89
2022-08-17T17:11:41.728Z,18.96
2022-08-17T17:14:16.850Z,18.75
2022-08-17T17:17:06.059Z,18.86
2022-08-17T17:19:49.022Z,18.75
2022-08-17T17:22:25.672Z,18.71
2022-08-17T17:25:09.405Z,18.67
2022-08-17T17:28:07.061Z,18.77
2022-08-17T17:30:39.967Z,18.60
2022-08-17T17:33:14.149Z,18.46
2022-08-17T17:35:49.087Z,18.59
2022-08-17T17:38:22.890Z,18.53
2022-08-17T17:40:55.524Z,18.64
2022-08-17T17:43:38.991Z,18.63
2022-08-17T17:46:33.843Z,18.48
2022-08-17T17:49:01.004Z,18.50
2022-08-17T17:52:10.239Z,18.45
2022-08-17T17:54:46.757Z,18.56
2022-08-17T17:58:03.696Z,18.60
2022-08-17T18:00:44.290Z,18.61
2022-08-17T18:03:25.871Z,18.58
2022-08-17T18:05:52.667Z,18.46
2022-08-17T18:08:36.985Z,18.40
2022-08-17T18:11:24.247Z,18.34
2022-08-17T18:14:17.535Z,18.39
2022-08-17T18:16:46.383Z,18.17
2022-08-17T18:19:19.854Z,18.04
2022-08-17T18:21:53.000Z,17.92
2022-08-17T18:24:49.312Z,17.99
2022-08-17T18:27:38.298Z,17.81
2022-08-17T18:30:10.885Z,17.92
2022-08-17T18:32:46.637Z,17.91
2022-08-17T18:35:16.135Z,17.88
2022-08-17T18:37:52.649Z,17.99
2022-08-17T18:40:19.755Z,17.96
2022-08-17T18:43:08.059Z,18.18
2022-08-17T18:45:41.009Z,18.04
2022-08-17T18:48:30.218Z,18.06
2022-08-17T18:51:20.309Z,18.04
2022-08-17T18:54:15.612Z,18.05
2022-08-17T18:56:56.389Z,17.88
2022-08-17T18:59:42.078Z,18.06
2022-08-17T19:02:22.117Z,18.12
2022-08-17T19:05:10.001Z,17.99
2022-08-17T19:07:46.113Z,18.06
2022-08-17T19:10:16.540Z,18.09
2022-08-17T19:12:55.280Z,18.11
2022-08-17T19:15:34.440Z,18.09
2022-08-17T19:18:15.280Z,18.07
2022-08-17T19:20:50.918Z,18.14
2022-08-17T19:23:29.309Z,18.26
2022-08-17T19:25:59.292Z,18.30
2022-08-17T19:28:38.853Z,18.27
2022-08-17T19:31:19.331Z,18.27
2022-08-17T19:33:47.943Z,18.09
2022-08-17T19:36:25.236Z,18.14
2022-08-17T19:39:04.217Z,18.16
2022-08-17T19:41:49.107Z,18.16
2022-08-17T19:44:47.150Z,17.96
2022-08-17T19:47:54.279Z,18.16
2022-08-17T19:50:41.084Z,18.09
2022-08-17T19:53:47.841Z,17.96
2022-08-17T19:56:22.225Z,18.27
2022-08-17T19:58:56.095Z,18.17
2022-08-17T20:01:34.895Z,18.32
2022-08-17T20:04:14.306Z,18.32
2022-08-17T20:06:44.223Z,18.41
2022-08-17T20:09:35.395Z,18.39
2022-08-17T20:12:09.372Z,18.42
2022-08-17T20:14:53.502Z,18.42
2022-08-17T20:17:23.953Z,18.44
2022-08-17T20:19:53.279Z,18.36
2022-08-17T20:22:49.364Z,18.47
2022-08-17T20:25:54.982Z,18.26
2022-08-17T20:28:31.597Z,18.44
2022-08-17T20:30:59.193Z,18.43
2022-08-17T20:33:31.739Z,18.41
2022-08-17T20:36:06.185Z,18.53
2022-08-17T20:38:42.709Z,18.56
2022-08-17T20:41:16.977Z,18.47
2022-08-17T20:43:49.028Z,18.57
2022-08-17T20:46:30.716Z,18.56
2022-08-17T20:49:19.135Z,18.56
2022-08-17T20:52:00.770Z,18.47
2022-08-17T20:54:47.018Z,18.39
2022-08-17T20:57:34.419Z,18.44
2022-08-17T21:00:14.967Z,18.35
2022-08-17T21:02:47.159Z,18.32
2022-08-17T21:05:34.404Z,18.17
2022-08-17T21:08:16.165Z,18.14
2022-08-17T21:10:46.961Z,18.17
2022-08-17T21:13:13.883Z,18.13
2022-08-17T21:15:42.011Z,18.19
2022-08-17T21:18:25.955Z,18.24
2022-08-17T21:21:37.084Z,18.25
2022-08-17T21:24:15.550Z,18.25
2022-08-17T21:27:04.502Z,18.15
2022-08-17T21:29:33.961Z,18.14
2022-08-17T21:32:03.821Z,18.13
2022-08-17T21:35:07.158Z,18.14
2022-08-17T21:37:58.515Z,18.00
2022-08-17T21:40:30.136Z,17.95
2022-08-17T21:42:59.271Z,17.80
2022-08-17T21:45:38.063Z,17.74
2022-08-17T21:48:19.749Z,17.85
2022-08-17T21:50:59.151Z,17.76
2022-08-17T21:53:33.657Z,17.98
2022-08-17T21:56:00.763Z,18.09
2022-08-17T21:58:31.106Z,18.09
2022-08-17T22:01:31.861Z,18.02
2022-08-17T22:04:17.843Z,17.96
2022-08-17T22:06:52.535Z,17.89
2022-08-17T22:09:40.408Z,18.00
2022-08-17T22:12:20.576Z,18.00
2022-08-17T22:14:57.276Z,18.04
2022-08-17T22:17:29.761Z,17.90
2022-08-17T22:20:16.838Z,18.09
2022-08-17T22:23:04.867Z,18.01
2022-08-17T22:25:35.953Z,18.14
2022-08-17T22:28:45.536Z,18.17
2022-08-17T22:31:15.886Z,18.24
2022-08-17T22:33:44.554Z,18.33
2022-08-17T22:36:34.499Z,18.29
2022-08-17T22:39:22.578Z,18.23
2022-08-17T22:41:59.369Z,18.01
2022-08-17T22:44:37.822Z,18.02
2022-08-17T22:47:29.350Z,18.01
2022-08-17T22:50:00.238Z,17.95
2022-08-17T22:52:32.232Z,17.94
2022-08-17T22:55:36.082Z,18.08
2022-08-17T22:58:29.875Z,18.03
2022-08-17T23:00:56.611Z,18.09
2022-08-17T23:03:25.824Z,18.03
2022-08-17T23:06:08.138Z,17.95
2022-08-17T23:08:54.912Z,17.95
2022-08-17T23:11:36.533Z,17.91
2022-08-17T23:14:15.601Z,17.94
2022-08-17T23:16:42.979Z,17.87
2022-08-17T23:19:11.629Z,17.88
2022-08-17T23:21:38.688Z,17.77
2022-08-17T23:24:07.807Z,17.77
2022-08-17T23:26:38.003Z,17.82
2022-08-17T23:29:08.951Z,17.65
2022-08-17T23:31:37.297Z,17.51
2022-08-17T23:34:05.951Z,17.56
2022-08-17T23:36:36.051Z,17.51
2022-08-17T23:39:04.323Z,17.55
2022-08-17T23:41:35.929Z,17.46
2022-08-17T23:44:05.562Z,17.48
2022-08-17T23:46:32.840Z,17.58
2022-08-17T23:48:59.572Z,17.57
2022-08-17T23:51:34.588Z,17.49
2022-08-17T23:54:09.331Z,17.47
2022-08-17T23:56:44.408Z,17.49
2022-08-17T23:59:12.884Z,17.44
